ENBV

Berlevåg Airport

Berlevåg, Norway
METAR ENBV 171950Z 23009KT 9999 SCT020 BKN060 14/13 Q1001
Observed Flight Rules
Aug-17 @ 19:50 UTC (3 hours ago) Visual Flight Rules
Wind Visibility Clouds
230° at 9 knots 10,000+ meters
  • Scattered at 2,000' AGL
  • Broken at 6,000' AGL
Temperatures Readings
Current 14°C / 57°F
Dewpoint 13°C / 55°F
Humidity 94%
Altimeter 29.56" Hg
Pressure 1001 hPa
Elevation 13
METAR ENBV 171950Z 23009KT 9999 SCT020 BKN060 14/13 Q1001
Observed Flight Rules
Aug-17 @ 19:50 UTC
(3 hours ago)
VFR
Wind Visibility
230° at 9 knots 10,000+ meters
Clouds
  • Scattered at 2,000' AGL
  • Broken at 6,000' AGL
Temperature Dewpoint
14°C / 57°F 13°C / 55°F
Humidity Altimeter Pressure
94% 29.56" Hg 1001 hPa